sensor_id;sensor_type;location;lat;lon;timestamp;pressure;altitude;pressure_sealevel;temperature;humidity
80118;BME280;69424;48.770;-1.564;2024-03-02T00:00:28;99434.45;;;4.91;81.16
80118;BME280;69424;48.770;-1.564;2024-03-02T00:01:36;99433.08;;;4.93;81.56
80118;BME280;69424;48.770;-1.564;2024-03-02T00:02:24;99434.50;;;4.94;81.34
80118;BME280;69424;48.770;-1.564;2024-03-02T00:03:13;99432.05;;;4.95;81.51
80118;BME280;69424;48.770;-1.564;2024-03-02T00:04:04;99431.89;;;4.96;81.46
80118;BME280;69424;48.770;-1.564;2024-03-02T00:04:52;99429.43;;;4.96;81.38
80118;BME280;69424;48.770;-1.564;2024-03-02T00:05:40;99435.23;;;4.96;81.50
80118;BME280;69424;48.770;-1.564;2024-03-02T00:06:28;99431.35;;;4.95;81.46
80118;BME280;69424;48.770;-1.564;2024-03-02T00:07:16;99428.03;;;4.95;81.56
80118;BME280;69424;48.770;-1.564;2024-03-02T00:08:06;99427.85;;;4.94;81.62
80118;BME280;69424;48.770;-1.564;2024-03-02T00:08:58;99423.11;;;4.94;81.67
80118;BME280;69424;48.770;-1.564;2024-03-02T00:09:46;99424.15;;;4.93;81.72
80118;BME280;69424;48.770;-1.564;2024-03-02T00:10:37;99423.45;;;4.93;81.53
80118;BME280;69424;48.770;-1.564;2024-03-02T00:11:28;99423.63;;;4.92;81.78
80118;BME280;69424;48.770;-1.564;2024-03-02T00:12:16;99428.89;;;4.93;81.68
80118;BME280;69424;48.770;-1.564;2024-03-02T00:13:05;99431.16;;;4.93;81.88
80118;BME280;69424;48.770;-1.564;2024-03-02T00:13:54;99431.00;;;4.94;81.73
80118;BME280;69424;48.770;-1.564;2024-03-02T00:14:42;99424.87;;;4.95;82.00
80118;BME280;69424;48.770;-1.564;2024-03-02T00:16:17;99424.92;;;5.00;81.64
80118;BME280;69424;48.770;-1.564;2024-03-02T00:17:09;99420.91;;;5.03;81.40
80118;BME280;69424;48.770;-1.564;2024-03-02T00:18:03;99417.63;;;5.06;81.42
80118;BME280;69424;48.770;-1.564;2024-03-02T00:18:52;99413.80;;;5.08;81.35
80118;BME280;69424;48.770;-1.564;2024-03-02T00:19:40;99418.91;;;5.11;81.20
80118;BME280;69424;48.770;-1.564;2024-03-02T00:20:28;99409.64;;;5.14;81.13
80118;BME280;69424;48.770;-1.564;2024-03-02T00:21:16;99404.23;;;5.16;81.05
80118;BME280;69424;48.770;-1.564;2024-03-02T00:22:08;99404.24;;;5.19;80.78
80118;BME280;69424;48.770;-1.564;2024-03-02T00:23:04;99400.41;;;5.21;80.82
80118;BME280;69424;48.770;-1.564;2024-03-02T00:23:53;99401.30;;;5.22;80.58
80118;BME280;69424;48.770;-1.564;2024-03-02T00:24:40;99405.00;;;5.23;80.42
80118;BME280;69424;48.770;-1.564;2024-03-02T00:25:49;99401.50;;;5.24;80.32
80118;BME280;69424;48.770;-1.564;2024-03-02T00:26:38;99398.35;;;5.24;80.10
80118;BME280;69424;48.770;-1.564;2024-03-02T00:27:26;99398.52;;;5.24;80.21
80118;BME280;69424;48.770;-1.564;2024-03-02T00:28:20;99399.04;;;5.24;80.19
80118;BME280;69424;48.770;-1.564;2024-03-02T00:29:15;99396.06;;;5.24;80.23
80118;BME280;69424;48.770;-1.564;2024-03-02T00:31:31;99395.17;;;5.23;80.15
80118;BME280;69424;48.770;-1.564;2024-03-02T00:32:19;99393.95;;;5.23;80.12
80118;BME280;69424;48.770;-1.564;2024-03-02T00:33:07;99387.31;;;5.24;80.14
80118;BME280;69424;48.770;-1.564;2024-03-02T00:33:55;99385.05;;;5.26;80.10
80118;BME280;69424;48.770;-1.564;2024-03-02T00:34:43;99389.79;;;5.27;80.15
80118;BME280;69424;48.770;-1.564;2024-03-02T00:35:31;99388.23;;;5.30;79.97
80118;BME280;69424;48.770;-1.564;2024-03-02T00:36:27;99385.09;;;5.32;80.15
80118;BME280;69424;48.770;-1.564;2024-03-02T00:37:15;99386.70;;;5.35;79.95
80118;BME280;69424;48.770;-1.564;2024-03-02T00:38:06;99385.64;;;5.37;79.96
80118;BME280;69424;48.770;-1.564;2024-03-02T00:38:54;99387.95;;;5.39;79.82
80118;BME280;69424;48.770;-1.564;2024-03-02T00:39:42;99389.89;;;5.40;79.80
80118;BME280;69424;48.770;-1.564;2024-03-02T00:40:31;99391.47;;;5.41;79.70
80118;BME280;69424;48.770;-1.564;2024-03-02T00:41:22;99390.27;;;5.42;79.67
80118;BME280;69424;48.770;-1.564;2024-03-02T00:42:13;99387.79;;;5.42;79.61
80118;BME280;69424;48.770;-1.564;2024-03-02T00:43:01;99385.86;;;5.42;79.72
80118;BME280;69424;48.770;-1.564;2024-03-02T00:44:00;99383.42;;;5.42;79.54
80118;BME280;69424;48.770;-1.564;2024-03-02T00:44:49;99379.21;;;5.41;79.68
80118;BME280;69424;48.770;-1.564;2024-03-02T00:45:39;99383.41;;;5.41;79.66
80118;BME280;69424;48.770;-1.564;2024-03-02T00:46:29;99387.95;;;5.40;79.52
80118;BME280;69424;48.770;-1.564;2024-03-02T00:47:18;99391.27;;;5.39;79.76
80118;BME280;69424;48.770;-1.564;2024-03-02T00:48:07;99388.09;;;5.36;79.91
80118;BME280;69424;48.770;-1.564;2024-03-02T00:48:57;99385.80;;;5.36;79.89
80118;BME280;69424;48.770;-1.564;2024-03-02T00:49:46;99380.73;;;5.35;79.97
80118;BME280;69424;48.770;-1.564;2024-03-02T00:50:36;99380.19;;;5.34;79.98
80118;BME280;69424;48.770;-1.564;2024-03-02T00:51:25;99379.85;;;5.34;80.01
80118;BME280;69424;48.770;-1.564;2024-03-02T00:52:13;99379.67;;;5.33;80.05
80118;BME280;69424;48.770;-1.564;2024-03-02T00:53:02;99376.52;;;5.33;80.43
80118;BME280;69424;48.770;-1.564;2024-03-02T00:53:52;99375.45;;;5.32;80.42
80118;BME280;69424;48.770;-1.564;2024-03-02T00:54:40;99367.73;;;5.32;80.47
80118;BME280;69424;48.770;-1.564;2024-03-02T00:55:28;99373.88;;;5.32;80.55
80118;BME280;69424;48.770;-1.564;2024-03-02T00:56:16;99372.65;;;5.32;80.44
80118;BME280;69424;48.770;-1.564;2024-03-02T00:57:04;99374.77;;;5.33;80.58
80118;BME280;69424;48.770;-1.564;2024-03-02T00:57:52;99371.79;;;5.34;80.63
80118;BME280;69424;48.770;-1.564;2024-03-02T00:58:40;99373.71;;;5.33;80.58
80118;BME280;69424;48.770;-1.564;2024-03-02T00:59:28;99372.66;;;5.34;80.77
80118;BME280;69424;48.770;-1.564;2024-03-02T01:00:17;99373.54;;;5.33;80.83
80118;BME280;69424;48.770;-1.564;2024-03-02T01:01:06;99373.70;;;5.32;81.08
80118;BME280;69424;48.770;-1.564;2024-03-02T01:01:55;99372.30;;;5.32;81.34
80118;BME280;69424;48.770;-1.564;2024-03-02T01:02:43;99370.17;;;5.31;81.32
80118;BME280;69424;48.770;-1.564;2024-03-02T01:03:33;99371.76;;;5.30;81.41
80118;BME280;69424;48.770;-1.564;2024-03-02T01:04:21;99371.02;;;5.29;81.49
80118;BME280;69424;48.770;-1.564;2024-03-02T01:05:09;99373.30;;;5.28;81.72
80118;BME280;69424;48.770;-1.564;2024-03-02T01:05:57;99373.30;;;5.27;81.81
80118;BME280;69424;48.770;-1.564;2024-03-02T01:06:45;99372.95;;;5.26;82.12
80118;BME280;69424;48.770;-1.564;2024-03-02T01:07:34;99362.42;;;5.26;82.17
80118;BME280;69424;48.770;-1.564;2024-03-02T01:08:22;99357.52;;;5.26;82.17
80118;BME280;69424;48.770;-1.564;2024-03-02T01:09:09;99359.11;;;5.26;82.26
80118;BME280;69424;48.770;-1.564;2024-03-02T01:09:57;99356.48;;;5.27;82.28
80118;BME280;69424;48.770;-1.564;2024-03-02T01:10:46;99352.96;;;5.28;82.06
80118;BME280;69424;48.770;-1.564;2024-03-02T01:11:34;99354.56;;;5.29;82.15
80118;BME280;69424;48.770;-1.564;2024-03-02T01:12:22;99346.86;;;5.29;82.10
80118;BME280;69424;48.770;-1.564;2024-03-02T01:13:10;99352.65;;;5.31;82.22
80118;BME280;69424;48.770;-1.564;2024-03-02T01:13:58;99350.56;;;5.32;82.11
80118;BME280;69424;48.770;-1.564;2024-03-02T01:14:46;99349.00;;;5.35;82.27
80118;BME280;69424;48.770;-1.564;2024-03-02T01:15:43;99346.91;;;5.37;82.30
80118;BME280;69424;48.770;-1.564;2024-03-02T01:16:31;99350.23;;;5.37;82.02
80118;BME280;69424;48.770;-1.564;2024-03-02T01:17:19;99350.58;;;5.37;82.00
80118;BME280;69424;48.770;-1.564;2024-03-02T01:18:07;99349.36;;;5.38;82.12
80118;BME280;69424;48.770;-1.564;2024-03-02T01:18:55;99347.78;;;5.37;82.12
80118;BME280;69424;48.770;-1.564;2024-03-02T01:19:43;99345.87;;;5.37;82.18
80118;BME280;69424;48.770;-1.564;2024-03-02T01:20:32;99348.84;;;5.37;82.17
80118;BME280;69424;48.770;-1.564;2024-03-02T01:21:19;99348.67;;;5.38;82.11
80118;BME280;69424;48.770;-1.564;2024-03-02T01:22:07;99346.21;;;5.38;82.09
80118;BME280;69424;48.770;-1.564;2024-03-02T01:22:55;99342.18;;;5.38;82.27
80118;BME280;69424;48.770;-1.564;2024-03-02T01:23:43;99344.82;;;5.39;82.40
80118;BME280;69424;48.770;-1.564;2024-03-02T01:24:31;99344.30;;;5.39;82.24
80118;BME280;69424;48.770;-1.564;2024-03-02T01:25:19;99340.45;;;5.40;82.30
80118;BME280;69424;48.770;-1.564;2024-03-02T01:26:07;99338.88;;;5.41;82.27
80118;BME280;69424;48.770;-1.564;2024-03-02T01:26:55;99338.53;;;5.42;82.35
80118;BME280;69424;48.770;-1.564;2024-03-02T01:27:43;99329.61;;;5.45;82.07
80118;BME280;69424;48.770;-1.564;2024-03-02T01:28:34;99339.10;;;5.48;82.20
80118;BME280;69424;48.770;-1.564;2024-03-02T01:29:22;99334.73;;;5.50;82.09
80118;BME280;69424;48.770;-1.564;2024-03-02T01:30:10;99338.45;;;5.54;81.97
80118;BME280;69424;48.770;-1.564;2024-03-02T01:30:59;99325.11;;;5.56;81.94
80118;BME280;69424;48.770;-1.564;2024-03-02T01:31:46;99331.81;;;5.58;81.79
80118;BME280;69424;48.770;-1.564;2024-03-02T01:32:34;99326.39;;;5.61;81.78
80118;BME280;69424;48.770;-1.564;2024-03-02T01:33:22;99328.50;;;5.62;81.70
80118;BME280;69424;48.770;-1.564;2024-03-02T01:34:10;99326.21;;;5.63;81.70
80118;BME280;69424;48.770;-1.564;2024-03-02T01:35:00;99319.75;;;5.65;81.64
80118;BME280;69424;48.770;-1.564;2024-03-02T01:35:48;99323.43;;;5.65;81.58
80118;BME280;69424;48.770;-1.564;2024-03-02T01:36:35;99318.16;;;5.65;81.62
80118;BME280;69424;48.770;-1.564;2024-03-02T01:37:23;99321.50;;;5.65;81.55
80118;BME280;69424;48.770;-1.564;2024-03-02T01:38:11;99318.70;;;5.64;81.39
80118;BME280;69424;48.770;-1.564;2024-03-02T01:38:59;99324.64;;;5.62;81.41
80118;BME280;69424;48.770;-1.564;2024-03-02T01:39:47;99323.23;;;5.62;81.46
80118;BME280;69424;48.770;-1.564;2024-03-02T01:40:36;99328.14;;;5.61;81.49
80118;BME280;69424;48.770;-1.564;2024-03-02T01:41:24;99326.91;;;5.61;81.38
80118;BME280;69424;48.770;-1.564;2024-03-02T01:42:12;99325.33;;;5.61;81.59
80118;BME280;69424;48.770;-1.564;2024-03-02T01:43:00;99326.04;;;5.60;81.49
80118;BME280;69424;48.770;-1.564;2024-03-02T01:43:48;99322.34;;;5.60;81.76
80118;BME280;69424;48.770;-1.564;2024-03-02T01:44:36;99327.27;;;5.61;81.97
80118;BME280;69424;48.770;-1.564;2024-03-02T01:45:24;99327.45;;;5.62;81.96
80118;BME280;69424;48.770;-1.564;2024-03-02T01:46:12;99327.28;;;5.64;81.79
80118;BME280;69424;48.770;-1.564;2024-03-02T01:47:00;99315.37;;;5.65;81.92
80118;BME280;69424;48.770;-1.564;2024-03-02T01:47:48;99319.25;;;5.68;81.98
80118;BME280;69424;48.770;-1.564;2024-03-02T01:48:36;99314.34;;;5.69;82.16
80118;BME280;69424;48.770;-1.564;2024-03-02T01:49:24;99316.63;;;5.71;82.24
80118;BME280;69424;48.770;-1.564;2024-03-02T01:50:12;99322.60;;;5.72;82.48
80118;BME280;69424;48.770;-1.564;2024-03-02T01:51:01;99314.36;;;5.73;82.33
80118;BME280;69424;48.770;-1.564;2024-03-02T01:51:48;99311.91;;;5.73;82.41
80118;BME280;69424;48.770;-1.564;2024-03-02T01:52:37;99309.29;;;5.74;82.37
80118;BME280;69424;48.770;-1.564;2024-03-02T01:53:25;99309.10;;;5.73;82.49
80118;BME280;69424;48.770;-1.564;2024-03-02T01:54:13;99310.49;;;5.73;82.40
80118;BME280;69424;48.770;-1.564;2024-03-02T01:55:01;99309.27;;;5.72;82.53
80118;BME280;69424;48.770;-1.564;2024-03-02T01:55:49;99308.55;;;5.72;82.54
80118;BME280;69424;48.770;-1.564;2024-03-02T01:56:37;99307.16;;;5.71;82.66
80118;BME280;69424;48.770;-1.564;2024-03-02T01:57:25;99308.39;;;5.71;82.83
80118;BME280;69424;48.770;-1.564;2024-03-02T01:58:13;99307.15;;;5.71;82.94
80118;BME280;69424;48.770;-1.564;2024-03-02T01:59:01;99304.52;;;5.71;83.14
80118;BME280;69424;48.770;-1.564;2024-03-02T01:59:49;99299.44;;;5.72;83.12
80118;BME280;69424;48.770;-1.564;2024-03-02T02:00:38;99302.43;;;5.73;83.06
80118;BME280;69424;48.770;-1.564;2024-03-02T02:01:26;99297.88;;;5.75;82.87
80118;BME280;69424;48.770;-1.564;2024-03-02T02:02:15;99298.77;;;5.76;82.66
80118;BME280;69424;48.770;-1.564;2024-03-02T02:03:03;99296.13;;;5.77;82.71
80118;BME280;69424;48.770;-1.564;2024-03-02T02:03:51;99292.27;;;5.77;82.67
80118;BME280;69424;48.770;-1.564;2024-03-02T02:04:40;99297.73;;;5.78;82.67
80118;BME280;69424;48.770;-1.564;2024-03-02T02:05:28;99289.82;;;5.78;82.49
80118;BME280;69424;48.770;-1.564;2024-03-02T02:06:16;99288.95;;;5.78;82.47
80118;BME280;69424;48.770;-1.564;2024-03-02T02:07:04;99291.05;;;5.78;82.49
80118;BME280;69424;48.770;-1.564;2024-03-02T02:07:52;99286.84;;;5.78;82.66
80118;BME280;69424;48.770;-1.564;2024-03-02T02:08:40;99288.59;;;5.77;82.62
80118;BME280;69424;48.770;-1.564;2024-03-02T02:09:28;99287.89;;;5.78;82.79
80118;BME280;69424;48.770;-1.564;2024-03-02T02:10:17;99285.60;;;5.77;82.72
80118;BME280;69424;48.770;-1.564;2024-03-02T02:11:05;99278.59;;;5.76;82.85
80118;BME280;69424;48.770;-1.564;2024-03-02T02:11:54;99277.00;;;5.75;82.82
80118;BME280;69424;48.770;-1.564;2024-03-02T02:12:42;99270.16;;;5.74;82.91
80118;BME280;69424;48.770;-1.564;2024-03-02T02:13:30;99271.22;;;5.74;82.72
80118;BME280;69424;48.770;-1.564;2024-03-02T02:14:18;99269.46;;;5.74;82.80
80118;BME280;69424;48.770;-1.564;2024-03-02T02:15:26;99270.34;;;5.74;82.86
80118;BME280;69424;48.770;-1.564;2024-03-02T02:16:15;99262.96;;;5.75;82.66
80118;BME280;69424;48.770;-1.564;2024-03-02T02:17:03;99265.77;;;5.75;82.88
80118;BME280;69424;48.770;-1.564;2024-03-02T02:17:51;99263.84;;;5.76;82.84
80118;BME280;69424;48.770;-1.564;2024-03-02T02:18:40;99264.73;;;5.77;82.84
80118;BME280;69424;48.770;-1.564;2024-03-02T02:19:28;99262.46;;;5.78;82.97
80118;BME280;69424;48.770;-1.564;2024-03-02T02:20:16;99258.08;;;5.78;82.96
80118;BME280;69424;48.770;-1.564;2024-03-02T02:21:04;99255.10;;;5.79;82.64
80118;BME280;69424;48.770;-1.564;2024-03-02T02:21:52;99255.79;;;5.78;82.36
80118;BME280;69424;48.770;-1.564;2024-03-02T02:22:58;99260.52;;;5.78;82.58
80118;BME280;69424;48.770;-1.564;2024-03-02T02:23:47;99260.00;;;5.76;82.55
80118;BME280;69424;48.770;-1.564;2024-03-02T02:24:40;99259.98;;;5.74;82.60
80118;BME280;69424;48.770;-1.564;2024-03-02T02:25:29;99257.88;;;5.72;82.77
80118;BME280;69424;48.770;-1.564;2024-03-02T02:26:17;99254.17;;;5.69;82.79
80118;BME280;69424;48.770;-1.564;2024-03-02T02:27:05;99254.50;;;5.66;82.76
80118;BME280;69424;48.770;-1.564;2024-03-02T02:27:54;99256.08;;;5.64;82.50
80118;BME280;69424;48.770;-1.564;2024-03-02T02:28:43;99258.53;;;5.63;82.64
80118;BME280;69424;48.770;-1.564;2024-03-02T02:29:34;99260.45;;;5.61;82.88
80118;BME280;69424;48.770;-1.564;2024-03-02T02:30:27;99265.70;;;5.60;82.91
80118;BME280;69424;48.770;-1.564;2024-03-02T02:31:16;99265.36;;;5.59;82.97
80118;BME280;69424;48.770;-1.564;2024-03-02T02:32:04;99265.70;;;5.58;82.97
80118;BME280;69424;48.770;-1.564;2024-03-02T02:32:52;99268.14;;;5.58;83.32
80118;BME280;69424;48.770;-1.564;2024-03-02T02:33:41;99267.10;;;5.58;83.37
80118;BME280;69424;48.770;-1.564;2024-03-02T02:34:29;99263.92;;;5.58;83.54
80118;BME280;69424;48.770;-1.564;2024-03-02T02:35:17;99264.83;;;5.59;83.52
80118;BME280;69424;48.770;-1.564;2024-03-02T02:36:05;99273.42;;;5.59;83.63
80118;BME280;69424;48.770;-1.564;2024-03-02T02:36:53;99272.54;;;5.60;83.61
80118;BME280;69424;48.770;-1.564;2024-03-02T02:37:43;99270.63;;;5.61;83.64
80118;BME280;69424;48.770;-1.564;2024-03-02T02:38:33;99268.53;;;5.62;83.54
80118;BME280;69424;48.770;-1.564;2024-03-02T02:39:23;99268.89;;;5.64;83.71
80118;BME280;69424;48.770;-1.564;2024-03-02T02:40:11;99261.52;;;5.64;83.83
80118;BME280;69424;48.770;-1.564;2024-03-02T02:41:00;99261.86;;;5.65;83.97
80118;BME280;69424;48.770;-1.564;2024-03-02T02:41:48;99255.73;;;5.67;83.49
80118;BME280;69424;48.770;-1.564;2024-03-02T02:42:36;99254.88;;;5.68;83.62
80118;BME280;69424;48.770;-1.564;2024-03-02T02:43:24;99247.33;;;5.69;83.19
80118;BME280;69424;48.770;-1.564;2024-03-02T02:44:13;99246.98;;;5.70;83.04
80118;BME280;69424;48.770;-1.564;2024-03-02T02:45:01;99248.05;;;5.72;82.96
80118;BME280;69424;48.770;-1.564;2024-03-02T02:45:49;99242.60;;;5.73;83.21
80118;BME280;69424;48.770;-1.564;2024-03-02T02:46:37;99244.20;;;5.74;83.15
80118;BME280;69424;48.770;-1.564;2024-03-02T02:47:26;99246.66;;;5.76;83.18
80118;BME280;69424;48.770;-1.564;2024-03-02T02:48:14;99242.81;;;5.78;83.04
80118;BME280;69424;48.770;-1.564;2024-03-02T02:49:02;99238.79;;;5.80;82.89
80118;BME280;69424;48.770;-1.564;2024-03-02T02:49:51;99237.40;;;5.82;83.06
80118;BME280;69424;48.770;-1.564;2024-03-02T02:50:39;99239.52;;;5.85;83.17
80118;BME280;69424;48.770;-1.564;2024-03-02T02:51:27;99236.89;;;5.88;83.12
80118;BME280;69424;48.770;-1.564;2024-03-02T02:52:15;99238.83;;;5.92;83.10
80118;BME280;69424;48.770;-1.564;2024-03-02T02:53:03;99232.34;;;5.95;83.12
80118;BME280;69424;48.770;-1.564;2024-03-02T02:53:51;99227.11;;;5.97;83.09
80118;BME280;69424;48.770;-1.564;2024-03-02T02:54:39;99230.30;;;6.00;83.02
80118;BME280;69424;48.770;-1.564;2024-03-02T02:55:27;99230.13;;;6.02;82.77
80118;BME280;69424;48.770;-1.564;2024-03-02T02:56:15;99231.02;;;6.05;82.83
80118;BME280;69424;48.770;-1.564;2024-03-02T02:57:04;99228.38;;;6.07;82.85
80118;BME280;69424;48.770;-1.564;2024-03-02T02:57:52;99229.63;;;6.09;82.92
80118;BME280;69424;48.770;-1.564;2024-03-02T02:58:40;99228.40;;;6.10;82.54
80118;BME280;69424;48.770;-1.564;2024-03-02T02:59:29;99231.74;;;6.11;82.52
80118;BME280;69424;48.770;-1.564;2024-03-02T03:00:18;99225.41;;;6.11;82.55
80118;BME280;69424;48.770;-1.564;2024-03-02T03:01:08;99223.65;;;6.12;82.52
80118;BME280;69424;48.770;-1.564;2024-03-02T03:01:56;99228.75;;;6.11;82.17
80118;BME280;69424;48.770;-1.564;2024-03-02T03:02:46;99230.15;;;6.11;81.96
80118;BME280;69424;48.770;-1.564;2024-03-02T03:03:36;99226.83;;;6.12;82.20
80118;BME280;69424;48.770;-1.564;2024-03-02T03:04:24;99225.77;;;6.11;82.19
80118;BME280;69424;48.770;-1.564;2024-03-02T03:05:13;99222.44;;;6.12;82.15
80118;BME280;69424;48.770;-1.564;2024-03-02T03:06:02;99218.92;;;6.13;82.35
80118;BME280;69424;48.770;-1.564;2024-03-02T03:06:51;99224.71;;;6.13;82.15
80118;BME280;69424;48.770;-1.564;2024-03-02T03:07:40;99226.99;;;6.14;82.15
80118;BME280;69424;48.770;-1.564;2024-03-02T03:08:29;99224.73;;;6.15;82.33
80118;BME280;69424;48.770;-1.564;2024-03-02T03:09:17;99225.25;;;6.15;82.28
80118;BME280;69424;48.770;-1.564;2024-03-02T03:10:06;99229.99;;;6.16;82.25
80118;BME280;69424;48.770;-1.564;2024-03-02T03:10:54;99225.77;;;6.17;82.42
80118;BME280;69424;48.770;-1.564;2024-03-02T03:11:42;99226.30;;;6.17;82.21
80118;BME280;69424;48.770;-1.564;2024-03-02T03:12:30;99225.61;;;6.17;82.12
80118;BME280;69424;48.770;-1.564;2024-03-02T03:13:22;99228.25;;;6.18;82.20
80118;BME280;69424;48.770;-1.564;2024-03-02T03:14:10;99223.86;;;6.18;82.11
80118;BME280;69424;48.770;-1.564;2024-03-02T03:14:58;99223.85;;;6.18;81.93
80118;BME280;69424;48.770;-1.564;2024-03-02T03:15:47;99218.77;;;6.18;82.12
80118;BME280;69424;48.770;-1.564;2024-03-02T03:16:35;99209.98;;;6.17;82.30
80118;BME280;69424;48.770;-1.564;2024-03-02T03:17:24;99206.83;;;6.18;82.32
80118;BME280;69424;48.770;-1.564;2024-03-02T03:18:12;99206.30;;;6.17;82.14
80118;BME280;69424;48.770;-1.564;2024-03-02T03:19:00;99204.38;;;6.17;82.18
80118;BME280;69424;48.770;-1.564;2024-03-02T03:19:49;99207.70;;;6.16;82.25
80118;BME280;69424;48.770;-1.564;2024-03-02T03:20:37;99205.94;;;6.16;81.98
80118;BME280;69424;48.770;-1.564;2024-03-02T03:21:25;99202.43;;;6.15;81.91
80118;BME280;69424;48.770;-1.564;2024-03-02T03:22:13;99202.44;;;6.15;81.88
80118;BME280;69424;48.770;-1.564;2024-03-02T03:23:02;99204.37;;;6.16;82.09
80118;BME280;69424;48.770;-1.564;2024-03-02T03:23:51;99199.10;;;6.18;82.03
80118;BME280;69424;48.770;-1.564;2024-03-02T03:24:40;99201.21;;;6.19;81.76
80118;BME280;69424;48.770;-1.564;2024-03-02T03:25:28;99195.79;;;6.21;81.59
80118;BME280;69424;48.770;-1.564;2024-03-02T03:26:16;99199.81;;;6.23;81.67
80118;BME280;69424;48.770;-1.564;2024-03-02T03:27:04;99201.94;;;6.25;81.74
80118;BME280;69424;48.770;-1.564;2024-03-02T03:27:52;99199.82;;;6.28;81.56
80118;BME280;69424;48.770;-1.564;2024-03-02T03:28:40;99201.77;;;6.30;81.31
80118;BME280;69424;48.770;-1.564;2024-03-02T03:29:28;99198.77;;;6.32;81.09
80118;BME280;69424;48.770;-1.564;2024-03-02T03:30:17;99200.89;;;6.33;81.21
80118;BME280;69424;48.770;-1.564;2024-03-02T03:31:05;99200.02;;;6.35;80.98
80118;BME280;69424;48.770;-1.564;2024-03-02T03:31:53;99199.84;;;6.36;80.81
80118;BME280;69424;48.770;-1.564;2024-03-02T03:32:41;99200.19;;;6.36;81.00
80118;BME280;69424;48.770;-1.564;2024-03-02T03:33:29;99202.46;;;6.38;80.94
80118;BME280;69424;48.770;-1.564;2024-03-02T03:34:17;99199.30;;;6.38;81.20
80118;BME280;69424;48.770;-1.564;2024-03-02T03:35:05;99199.13;;;6.39;81.10
80118;BME280;69424;48.770;-1.564;2024-03-02T03:35:54;99200.55;;;6.38;81.07
80118;BME280;69424;48.770;-1.564;2024-03-02T03:36:42;99204.06;;;6.38;81.07
80118;BME280;69424;48.770;-1.564;2024-03-02T03:37:31;99200.38;;;6.39;80.99
80118;BME280;69424;48.770;-1.564;2024-03-02T03:38:22;99206.87;;;6.38;80.90
80118;BME280;69424;48.770;-1.564;2024-03-02T03:39:10;99203.00;;;6.37;80.89
80118;BME280;69424;48.770;-1.564;2024-03-02T03:39:59;99203.35;;;6.37;81.05
80118;BME280;69424;48.770;-1.564;2024-03-02T03:40:47;99204.75;;;6.37;80.72
80118;BME280;69424;48.770;-1.564;2024-03-02T03:41:35;99203.34;;;6.37;80.78
80118;BME280;69424;48.770;-1.564;2024-03-02T03:42:23;99200.19;;;6.36;80.55
80118;BME280;69424;48.770;-1.564;2024-03-02T03:43:12;99198.08;;;6.37;80.42
80118;BME280;69424;48.770;-1.564;2024-03-02T03:44:00;99199.14;;;6.38;80.63
80118;BME280;69424;48.770;-1.564;2024-03-02T03:44:48;99201.25;;;6.39;80.41
80118;BME280;69424;48.770;-1.564;2024-03-02T03:45:36;99204.06;;;6.40;80.55
80118;BME280;69424;48.770;-1.564;2024-03-02T03:46:24;99204.58;;;6.42;80.54
80118;BME280;69424;48.770;-1.564;2024-03-02T03:47:12;99206.33;;;6.43;80.44
80118;BME280;69424;48.770;-1.564;2024-03-02T03:48:01;99206.33;;;6.45;80.51
80118;BME280;69424;48.770;-1.564;2024-03-02T03:48:49;99208.46;;;6.46;80.29
80118;BME280;69424;48.770;-1.564;2024-03-02T03:49:37;99205.46;;;6.46;80.44
80118;BME280;69424;48.770;-1.564;2024-03-02T03:50:26;99204.41;;;6.46;80.63
80118;BME280;69424;48.770;-1.564;2024-03-02T03:51:14;99210.05;;;6.47;80.52
80118;BME280;69424;48.770;-1.564;2024-03-02T03:52:02;99206.17;;;6.46;80.52
80118;BME280;69424;48.770;-1.564;2024-03-02T03:52:51;99204.76;;;6.46;80.44
80118;BME280;69424;48.770;-1.564;2024-03-02T03:53:39;99206.52;;;6.45;80.65
80118;BME280;69424;48.770;-1.564;2024-03-02T03:54:27;99206.35;;;6.44;80.68
80118;BME280;69424;48.770;-1.564;2024-03-02T03:55:16;99208.09;;;6.43;80.57
80118;BME280;69424;48.770;-1.564;2024-03-02T03:56:04;99208.98;;;6.42;80.57
80118;BME280;69424;48.770;-1.564;2024-03-02T03:56:53;99206.88;;;6.41;80.45
80118;BME280;69424;48.770;-1.564;2024-03-02T03:57:41;99205.99;;;6.40;80.74
80118;BME280;69424;48.770;-1.564;2024-03-02T03:58:29;99198.45;;;6.39;80.71
80118;BME280;69424;48.770;-1.564;2024-03-02T03:59:17;99202.48;;;6.39;80.32
80118;BME280;69424;48.770;-1.564;2024-03-02T04:00:05;99203.19;;;6.39;80.49
80118;BME280;69424;48.770;-1.564;2024-03-02T04:01:00;99203.35;;;6.39;80.55
80118;BME280;69424;48.770;-1.564;2024-03-02T04:01:48;99203.70;;;6.39;80.33
80118;BME280;69424;48.770;-1.564;2024-03-02T04:02:37;99208.27;;;6.38;80.24
80118;BME280;69424;48.770;-1.564;2024-03-02T04:03:25;99203.89;;;6.37;80.24
80118;BME280;69424;48.770;-1.564;2024-03-02T04:04:14;99207.92;;;6.38;80.23
80118;BME280;69424;48.770;-1.564;2024-03-02T04:05:02;99205.11;;;6.36;80.38
80118;BME280;69424;48.770;-1.564;2024-03-02T04:05:53;99200.02;;;6.36;80.30
80118;BME280;69424;48.770;-1.564;2024-03-02T04:06:41;99204.05;;;6.36;80.14
80118;BME280;69424;48.770;-1.564;2024-03-02T04:07:29;99202.30;;;6.36;80.18
80118;BME280;69424;48.770;-1.564;2024-03-02T04:08:17;99202.83;;;6.36;80.33
80118;BME280;69424;48.770;-1.564;2024-03-02T04:09:05;99203.87;;;6.35;80.39
80118;BME280;69424;48.770;-1.564;2024-03-02T04:09:53;99201.94;;;6.35;80.37
80118;BME280;69424;48.770;-1.564;2024-03-02T04:10:42;99201.59;;;6.33;80.25
80118;BME280;69424;48.770;-1.564;2024-03-02T04:11:30;99200.87;;;6.32;80.61
80118;BME280;69424;48.770;-1.564;2024-03-02T04:12:19;99203.69;;;6.31;80.36
80118;BME280;69424;48.770;-1.564;2024-03-02T04:13:07;99202.64;;;6.30;80.44
80118;BME280;69424;48.770;-1.564;2024-03-02T04:13:55;99198.26;;;6.29;80.57
80118;BME280;69424;48.770;-1.564;2024-03-02T04:14:45;99197.70;;;6.27;80.53
80118;BME280;69424;48.770;-1.564;2024-03-02T04:15:33;99201.74;;;6.26;80.69
80118;BME280;69424;48.770;-1.564;2024-03-02T04:16:22;99200.52;;;6.25;80.66
80118;BME280;69424;48.770;-1.564;2024-03-02T04:17:10;99198.59;;;6.23;80.76
80118;BME280;69424;48.770;-1.564;2024-03-02T04:17:59;99199.10;;;6.24;80.67
80118;BME280;69424;48.770;-1.564;2024-03-02T04:18:47;99203.14;;;6.23;80.99
80118;BME280;69424;48.770;-1.564;2024-03-02T04:19:35;99203.68;;;6.23;80.81
80118;BME280;69424;48.770;-1.564;2024-03-02T04:20:23;99201.22;;;6.24;80.82
80118;BME280;69424;48.770;-1.564;2024-03-02T04:21:14;99204.02;;;6.24;80.81